Time;durP1;ratioP1;P1;durP2;ratioP2;P2;SDS_P1;SDS_P2;PMS_P1;PMS_P2;Temp;Humidity;BMP_temperature;BMP_pressure;BME280_temperature;BME280_humidity;BME280_pressure;Samples;Min_cycle;Max_cycle;Signal;HPM_P1;HPM_P2
2022/10/27 00:00:20;;;;;;;;;;;;;;;15.93;73.44;101386.50;5305916;33;35804;-72
2022/10/27 00:03:22;;;;;;;;;;;;;;;16.24;70.65;101376.19;5322190;32;34830;-72
2022/10/27 00:06:24;;;;;;;;;;;;;;;16.15;71.50;101391.66;5305766;33;36565;-72
2022/10/27 00:09:26;;;;;;;;;;;;;;;16.63;69.21;101391.16;5319809;32;34858;-73
2022/10/27 00:12:28;;;;;;;;;;;;;;;16.05;71.52;101401.84;5311630;32;34962;-72
2022/10/27 00:15:30;;;;;;;;;;;;;;;15.81;72.11;101400.31;5311215;32;34254;-73
2022/10/27 00:18:32;;;;;;;;;;;;;;;14.94;77.12;101402.25;5303647;33;34522;-72
2022/10/27 00:21:34;;;;;;;;;;;;;;;15.50;74.71;101396.31;5304905;33;34332;-72
2022/10/27 00:24:36;;;;;;;;;;;;;;;15.73;74.20;101402.44;5314904;33;34945;-72
2022/10/27 00:27:38;;;;;;;;;;;;;;;16.04;71.73;101394.84;5291808;32;34470;-72
2022/10/27 00:30:39;;;;;;;;;;;;;;;15.12;76.44;101401.47;5319507;32;45745;-73
2022/10/27 00:33:41;;;;;;;;;;;;;;;15.59;75.29;101400.38;5305279;32;34779;-73
2022/10/27 00:36:43;;;;;;;;;;;;;;;14.95;78.16;101403.09;5306348;33;34868;-72
2022/10/27 00:39:45;;;;;;;;;;;;;;;15.01;78.41;101414.31;5315890;32;35557;-73
2022/10/27 00:42:47;;;;;;;;;;;;;;;15.95;74.18;101409.34;5306069;32;34646;-72
2022/10/27 00:45:49;;;;;;;;;;;;;;;15.55;75.83;101402.28;5320284;33;34279;-73
2022/10/27 00:48:51;;;;;;;;;;;;;;;16.22;72.62;101403.72;5304033;32;35093;-72
2022/10/27 00:51:54;;;;;;;;;;;;;;;16.36;70.47;101405.72;5317862;33;35093;-72
2022/10/27 00:54:57;;;;;;;;;;;;;;;14.47;80.29;101415.56;5304065;32;34940;-72
2022/10/27 00:58:00;;;;;;;;;;;;;;;14.28;82.13;101423.31;5297890;33;34235;-72
2022/10/27 01:01:01;;;;;;;;;;;;;;;15.31;78.09;101422.72;5302211;33;35703;-73
2022/10/27 01:04:03;;;;;;;;;;;;;;;15.11;78.39;101423.56;5306687;32;35240;-72
2022/10/27 01:07:05;;;;;;;;;;;;;;;15.08;78.61;101417.56;5319823;33;34306;-72
2022/10/27 01:10:07;;;;;;;;;;;;;;;15.77;75.70;101414.59;5304993;32;37127;-72
2022/10/27 01:13:09;;;;;;;;;;;;;;;16.20;72.20;101403.78;5320824;32;43385;-72
2022/10/27 01:16:18;;;;;;;;;;;;;;;14.70;78.57;101421.75;5280273;33;34382;-72
2022/10/27 01:19:20;;;;;;;;;;;;;;;15.45;76.67;101419.50;5306956;32;34845;-72
2022/10/27 01:22:28;;;;;;;;;;;;;;;14.87;78.79;101421.91;5320866;33;35028;-72
2022/10/27 01:25:42;;;;;;;;;;;;;;;14.88;79.10;101423.69;5287167;32;35047;-73
2022/10/27 01:29:00;;;;;;;;;;;;;;;15.41;76.93;101429.38;5314476;33;44579;-73
2022/10/27 01:32:14;;;;;;;;;;;;;;;15.11;77.98;101439.47;5306335;33;34507;-73
2022/10/27 01:35:34;;;;;;;;;;;;;;;16.41;71.17;101422.28;5301353;33;44663;-73
2022/10/27 01:38:40;;;;;;;;;;;;;;;15.19;76.01;101433.84;5315821;32;34202;-72
2022/10/27 01:41:43;;;;;;;;;;;;;;;14.81;78.39;101446.87;5290488;32;44739;-72
2022/10/27 01:44:46;;;;;;;;;;;;;;;15.08;77.99;101434.31;5318518;32;34824;-72
2022/10/27 01:47:48;;;;;;;;;;;;;;;15.08;77.81;101444.03;5306339;33;34790;-72
2022/10/27 01:50:50;;;;;;;;;;;;;;;15.15;77.78;101448.16;5311967;32;34716;-72
2022/10/27 01:54:02;;;;;;;;;;;;;;;14.74;79.36;101447.16;5315014;33;34661;-72
2022/10/27 01:57:10;;;;;;;;;;;;;;;14.84;78.39;101440.59;5292309;32;34116;-72
2022/10/27 02:00:12;;;;;;;;;;;;;;;14.93;78.95;101448.16;5319106;33;48163;-72
2022/10/27 02:03:17;;;;;;;;;;;;;;;14.89;78.41;101451.84;5306177;32;35463;-73
2022/10/27 02:06:21;;;;;;;;;;;;;;;15.06;78.74;101437.91;5319022;33;34935;-73
2022/10/27 02:09:23;;;;;;;;;;;;;;;14.82;79.54;101442.44;5305664;33;34411;-72
2022/10/27 02:12:35;;;;;;;;;;;;;;;14.56;79.50;101444.34;5303545;32;35755;-73
2022/10/27 02:15:47;;;;;;;;;;;;;;;14.79;78.74;101443.41;5305304;33;35228;-73
2022/10/27 02:19:00;;;;;;;;;;;;;;;15.06;76.70;101441.44;5305516;32;33884;-73
2022/10/27 02:22:02;;;;;;;;;;;;;;;14.52;79.22;101455.09;5307518;32;34275;-73
2022/10/27 02:25:04;;;;;;;;;;;;;;;14.78;79.25;101456.72;5293873;32;34328;-73
2022/10/27 02:28:06;;;;;;;;;;;;;;;14.80;78.48;101458.34;5288249;33;35913;-73
2022/10/27 02:31:08;;;;;;;;;;;;;;;14.58;79.94;101458.34;5304397;33;34779;-73
2022/10/27 02:34:09;;;;;;;;;;;;;;;14.93;77.66;101448.16;5303407;32;44472;-74
2022/10/27 02:37:16;;;;;;;;;;;;;;;15.04;78.55;101451.22;5316409;32;34756;-73
2022/10/27 02:40:17;;;;;;;;;;;;;;;14.97;77.57;101455.06;5304845;32;34723;-72
2022/10/27 02:43:19;;;;;;;;;;;;;;;14.82;78.83;101460.97;5323056;32;35144;-73
2022/10/27 02:46:21;;;;;;;;;;;;;;;13.99;82.01;101468.50;5306861;32;36606;-73
2022/10/27 02:49:23;;;;;;;;;;;;;;;14.17;82.94;101461.66;5311016;32;35087;-73
2022/10/27 02:52:24;;;;;;;;;;;;;;;14.13;81.89;101458.28;5320010;32;34678;-73
2022/10/27 02:55:26;;;;;;;;;;;;;;;13.59;84.73;101455.81;5308663;32;34777;-74
2022/10/27 02:58:28;;;;;;;;;;;;;;;14.04;82.09;101462.12;5322381;32;35383;-73
2022/10/27 03:01:30;;;;;;;;;;;;;;;14.50;81.14;101464.88;5306067;32;34134;-73
2022/10/27 03:04:32;;;;;;;;;;;;;;;14.00;83.07;101464.94;5321850;32;35216;-73
2022/10/27 03:07:34;;;;;;;;;;;;;;;13.70;84.67;101472.16;5308152;32;34723;-73
2022/10/27 03:10:36;;;;;;;;;;;;;;;14.41;82.42;101471.31;5305070;32;34309;-73
2022/10/27 03:13:37;;;;;;;;;;;;;;;13.93;83.35;101469.56;5308667;32;35038;-73
2022/10/27 03:16:39;;;;;;;;;;;;;;;14.18;82.98;101473.97;5304905;32;46882;-73
2022/10/27 03:19:41;;;;;;;;;;;;;;;14.22;82.29;101471.13;5322279;33;34696;-73
2022/10/27 03:22:43;;;;;;;;;;;;;;;14.34;82.15;101464.53;5308492;32;34917;-73
2022/10/27 03:25:45;;;;;;;;;;;;;;;14.42;81.25;101472.19;5288611;33;35550;-72
2022/10/27 03:28:49;;;;;;;;;;;;;;;14.57;80.70;101474.28;5303754;32;35036;-73
2022/10/27 03:31:50;;;;;;;;;;;;;;;13.97;82.94;101478.25;5309545;32;35031;-73
2022/10/27 03:34:52;;;;;;;;;;;;;;;13.96;83.60;101473.87;5318698;32;34972;-73
2022/10/27 03:37:55;;;;;;;;;;;;;;;13.39;86.09;101490.81;5301645;32;35189;-72
2022/10/27 03:40:57;;;;;;;;;;;;;;;13.60;87.12;101481.31;5306580;32;34019;-73
2022/10/27 03:43:59;;;;;;;;;;;;;;;13.72;84.98;101492.34;5308339;32;35193;-72
2022/10/27 03:47:00;;;;;;;;;;;;;;;13.44;86.78;101492.38;5320917;33;34318;-72
2022/10/27 03:50:02;;;;;;;;;;;;;;;13.58;85.60;101489.28;5307608;32;35036;-72
2022/10/27 03:53:04;;;;;;;;;;;;;;;13.82;86.67;101492.88;5307314;33;34001;-73
2022/10/27 03:56:06;;;;;;;;;;;;;;;13.92;83.22;101488.13;5320227;32;35156;-72
2022/10/27 03:59:08;;;;;;;;;;;;;;;14.43;81.63;101490.66;5305156;32;35651;-72
2022/10/27 04:02:10;;;;;;;;;;;;;;;13.78;85.06;101489.47;5319103;33;43777;-72
2022/10/27 04:05:12;;;;;;;;;;;;;;;14.85;81.49;101492.59;5305572;32;35742;-72
2022/10/27 04:08:14;;;;;;;;;;;;;;;14.57;81.19;101493.66;5322448;32;34735;-72
2022/10/27 04:11:16;;;;;;;;;;;;;;;14.15;83.13;101495.22;5304647;32;35602;-72
2022/10/27 04:14:17;;;;;;;;;;;;;;;14.49;82.69;101494.84;5307345;32;34849;-72
2022/10/27 04:17:19;;;;;;;;;;;;;;;13.82;86.24;101493.72;5321477;32;34661;-73
2022/10/27 04:20:21;;;;;;;;;;;;;;;14.59;81.67;101498.91;5305531;32;35473;-73
2022/10/27 04:23:23;;;;;;;;;;;;;;;15.14;79.03;101500.25;5307143;33;35207;-73
2022/10/27 04:26:25;;;;;;;;;;;;;;;15.51;75.53;101497.84;5271883;32;34579;-73
2022/10/27 04:29:27;;;;;;;;;;;;;;;14.52;79.46;101506.19;5320613;33;34265;-73
2022/10/27 04:32:29;;;;;;;;;;;;;;;15.38;76.87;101514.25;5307057;33;35879;-72
2022/10/27 04:35:31;;;;;;;;;;;;;;;15.04;77.22;101511.25;5301323;33;34240;-73
2022/10/27 04:38:32;;;;;;;;;;;;;;;15.52;75.43;101516.38;5302366;32;34130;-74
2022/10/27 04:41:38;;;;;;;;;;;;;;;14.50;80.17;101517.78;5303720;32;36247;-74
2022/10/27 04:44:40;;;;;;;;;;;;;;;14.40;80.78;101511.91;5319874;33;42906;-73
2022/10/27 04:47:42;;;;;;;;;;;;;;;14.81;79.94;101526.28;5307177;32;35004;-71
2022/10/27 04:50:43;;;;;;;;;;;;;;;14.99;77.60;101518.50;5319836;32;35308;-73
2022/10/27 04:53:45;;;;;;;;;;;;;;;14.59;79.28;101523.56;5307311;32;35045;-73
2022/10/27 04:56:47;;;;;;;;;;;;;;;15.37;76.13;101530.22;5305547;33;34868;-73
2022/10/27 04:59:49;;;;;;;;;;;;;;;14.83;78.23;101531.50;5319532;32;34968;-73
2022/10/27 05:02:57;;;;;;;;;;;;;;;14.97;77.92;101534.47;5290635;32;35475;-71
2022/10/27 05:05:59;;;;;;;;;;;;;;;14.70;78.75;101532.91;5317662;32;34231;-72
2022/10/27 05:09:01;;;;;;;;;;;;;;;15.13;77.42;101525.00;5305260;32;35298;-73
2022/10/27 05:12:03;;;;;;;;;;;;;;;15.57;75.47;101526.75;5317182;32;35509;-72
2022/10/27 05:15:05;;;;;;;;;;;;;;;15.04;76.84;101541.25;5304295;32;34278;-78
2022/10/27 05:18:07;;;;;;;;;;;;;;;15.89;73.22;101533.38;5306074;32;34619;-73
2022/10/27 05:21:11;;;;;;;;;;;;;;;15.84;73.76;101535.34;5317441;33;44709;-76
2022/10/27 05:24:13;;;;;;;;;;;;;;;15.91;73.34;101532.37;5305589;32;35290;-74
2022/10/27 05:27:15;;;;;;;;;;;;;;;16.03;72.89;101544.22;5296069;33;35376;-71
2022/10/27 05:30:17;;;;;;;;;;;;;;;16.38;70.90;101545.34;5303400;32;34442;-75
2022/10/27 05:33:19;;;;;;;;;;;;;;;15.52;73.74;101549.91;5316011;32;35468;-70
2022/10/27 05:36:21;;;;;;;;;;;;;;;15.07;77.36;101556.13;5305898;32;34874;-67
2022/10/27 05:39:23;;;;;;;;;;;;;;;14.32;81.21;101549.22;5306001;32;34400;-76
2022/10/27 05:42:25;;;;;;;;;;;;;;;14.42;81.15;101560.31;5317601;32;34396;-73
2022/10/27 05:45:27;;;;;;;;;;;;;;;14.51;81.02;101562.69;5304811;32;33383;-71
2022/10/27 05:48:29;;;;;;;;;;;;;;;15.11;78.39;101558.59;5320023;32;34371;-70
2022/10/27 05:51:31;;;;;;;;;;;;;;;15.51;76.16;101564.94;5298369;32;34107;-70
2022/10/27 05:54:32;;;;;;;;;;;;;;;15.14;77.09;101576.19;5316982;32;34332;-72
2022/10/27 05:57:34;;;;;;;;;;;;;;;15.47;75.80;101566.03;5314835;32;35520;-70
2022/10/27 06:00:37;;;;;;;;;;;;;;;14.68;79.50;101579.69;5310763;32;33312;-71
2022/10/27 06:03:39;;;;;;;;;;;;;;;15.79;74.30;101567.38;5323629;32;42994;-72
2022/10/27 06:06:41;;;;;;;;;;;;;;;14.47;79.25;101569.00;5306567;32;34424;-76
2022/10/27 06:09:43;;;;;;;;;;;;;;;15.89;74.16;101578.44;5308808;32;34257;-67
2022/10/27 06:12:44;;;;;;;;;;;;;;;15.06;76.28;101589.69;5301767;32;35289;-74
2022/10/27 06:15:46;;;;;;;;;;;;;;;15.34;76.49;101593.94;5312257;32;34462;-72
2022/10/27 06:18:48;;;;;;;;;;;;;;;15.00;77.29;101597.88;5294040;32;35357;-73
2022/10/27 06:21:50;;;;;;;;;;;;;;;15.00;77.90;101599.66;5310548;32;35366;-71
2022/10/27 06:24:52;;;;;;;;;;;;;;;14.59;77.83;101608.22;5309043;32;35497;-71
2022/10/27 06:27:54;;;;;;;;;;;;;;;14.35;82.12;101609.94;5293158;32;35507;-75
2022/10/27 06:30:57;;;;;;;;;;;;;;;14.50;80.28;101610.34;5302785;32;34096;-71
2022/10/27 06:33:58;;;;;;;;;;;;;;;15.21;77.69;101616.53;5306256;32;35433;-72
2022/10/27 06:37:02;;;;;;;;;;;;;;;15.17;77.68;101621.94;5315021;32;34759;-71
2022/10/27 06:40:05;;;;;;;;;;;;;;;14.97;79.20;101607.72;5326420;32;34565;-73
2022/10/27 06:43:07;;;;;;;;;;;;;;;15.57;75.71;101619.50;5308677;32;34402;-73
2022/10/27 06:46:09;;;;;;;;;;;;;;;14.96;78.50;101621.91;5294396;32;44935;-72
2022/10/27 06:49:11;;;;;;;;;;;;;;;14.59;80.91;101624.09;5302971;32;35819;-71
2022/10/27 06:52:18;;;;;;;;;;;;;;;15.13;77.63;101628.28;5313821;32;34315;-72
2022/10/27 06:55:20;;;;;;;;;;;;;;;15.53;76.01;101629.38;5311658;32;34275;-71
2022/10/27 06:58:21;;;;;;;;;;;;;;;15.79;74.88;101627.47;5298638;32;34299;-71
2022/10/27 07:01:23;;;;;;;;;;;;;;;14.82;78.62;101635.66;5313776;32;34916;-70
2022/10/27 07:04:25;;;;;;;;;;;;;;;14.97;79.00;101629.78;5312628;32;35715;-76
2022/10/27 07:07:27;;;;;;;;;;;;;;;14.48;81.40;101639.50;5298494;32;34162;-70
2022/10/27 07:10:29;;;;;;;;;;;;;;;15.64;75.29;101637.75;5305039;32;35017;-74
2022/10/27 07:13:31;;;;;;;;;;;;;;;15.45;75.36;101648.19;5325901;32;34083;-68
2022/10/27 07:16:33;;;;;;;;;;;;;;;14.52;80.08;101656.13;5309143;32;35253;-72
2022/10/27 07:19:35;;;;;;;;;;;;;;;15.12;76.99;101655.66;5316606;32;34906;-72
2022/10/27 07:22:40;;;;;;;;;;;;;;;14.93;78.10;101664.34;5319315;32;33799;-74
2022/10/27 07:25:42;;;;;;;;;;;;;;;15.45;76.51;101663.22;5290915;32;44374;-71
2022/10/27 07:28:49;;;;;;;;;;;;;;;15.04;77.69;101668.31;5309169;32;36859;-74
2022/10/27 07:31:52;;;;;;;;;;;;;;;15.95;73.82;101665.66;5317629;32;34246;-71
2022/10/27 07:34:54;;;;;;;;;;;;;;;15.57;74.12;101675.13;5325129;32;34494;-80
2022/10/27 07:37:56;;;;;;;;;;;;;;;15.04;77.55;101673.63;5311346;32;34212;-73
2022/10/27 07:40:58;;;;;;;;;;;;;;;15.05;77.29;101683.28;5307775;32;34120;-72
2022/10/27 07:44:00;;;;;;;;;;;;;;;15.33;75.57;101682.28;5313712;32;34315;-71
2022/10/27 07:47:02;;;;;;;;;;;;;;;15.80;73.79;101690.16;5311019;32;35725;-73
2022/10/27 07:50:05;;;;;;;;;;;;;;;15.22;76.52;101695.06;5316881;32;34230;-74
2022/10/27 07:53:07;;;;;;;;;;;;;;;16.28;71.37;101694.37;5308400;32;34242;-78
2022/10/27 07:56:09;;;;;;;;;;;;;;;15.32;75.40;101699.91;5305419;32;45758;-74
2022/10/27 07:59:11;;;;;;;;;;;;;;;16.39;71.78;101697.44;5308792;32;35931;-72
2022/10/27 08:02:14;;;;;;;;;;;;;;;15.78;72.77;101702.59;5309222;32;35417;-73
2022/10/27 08:05:16;;;;;;;;;;;;;;;15.87;73.59;101707.56;5320271;32;34469;-72
2022/10/27 08:08:18;;;;;;;;;;;;;;;16.49;71.58;101706.75;5311305;32;34008;-73
2022/10/27 08:11:21;;;;;;;;;;;;;;;16.15;72.69;101724.06;5317291;32;34402;-75
2022/10/27 08:14:23;;;;;;;;;;;;;;;16.04;71.96;101728.09;5309301;32;34303;-76
2022/10/27 08:17:27;;;;;;;;;;;;;;;15.72;73.46;101730.25;5321324;32;35447;-70
2022/10/27 08:20:31;;;;;;;;;;;;;;;14.76;77.56;101734.66;5308357;32;35419;-74
2022/10/27 08:23:33;;;;;;;;;;;;;;;15.64;75.40;101733.16;5307034;32;34272;-75
2022/10/27 08:26:34;;;;;;;;;;;;;;;16.47;70.45;101735.13;5287762;32;34704;-78
2022/10/27 08:29:36;;;;;;;;;;;;;;;16.32;71.04;101731.31;5309418;32;34368;-74
2022/10/27 08:32:39;;;;;;;;;;;;;;;16.32;70.12;101739.28;5302420;32;33739;-77
2022/10/27 08:35:41;;;;;;;;;;;;;;;15.00;76.27;101740.84;5299925;32;44472;-74
2022/10/27 08:38:44;;;;;;;;;;;;;;;15.33;76.19;101732.59;5319041;32;32758;-74
2022/10/27 08:42:02;;;;;;;;;;;;;;;15.57;74.06;101736.09;5297907;32;36325;-75
2022/10/27 08:45:07;;;;;;;;;;;;;;;15.86;73.58;101735.00;5304291;32;34757;-76
2022/10/27 08:48:09;;;;;;;;;;;;;;;15.47;75.57;101734.72;5314280;32;43343;-83
2022/10/27 08:51:15;;;;;;;;;;;;;;;15.52;75.21;101741.59;5312541;32;34889;-72
2022/10/27 08:54:17;;;;;;;;;;;;;;;16.08;71.79;101727.88;5316684;32;35602;-75
2022/10/27 08:57:22;;;;;;;;;;;;;;;16.16;71.43;101730.22;5305806;32;34165;-72
2022/10/27 09:00:24;;;;;;;;;;;;;;;16.08;71.46;101733.19;5310781;32;35635;-73
2022/10/27 09:03:29;;;;;;;;;;;;;;;16.89;68.79;101727.12;5316637;32;37311;-73
2022/10/27 09:06:48;;;;;;;;;;;;;;;16.52;69.40;101735.78;5309151;32;34141;-72
2022/10/27 09:09:49;;;;;;;;;;;;;;;17.05;68.32;101730.81;5303631;32;34653;-76
2022/10/27 09:13:07;;;;;;;;;;;;;;;16.09;71.89;101734.91;5309203;32;34028;-79
2022/10/27 09:16:11;;;;;;;;;;;;;;;16.64;69.75;101724.66;5306738;32;36520;-92
2022/10/27 09:19:21;;;;;;;;;;;;;;;16.34;71.84;101721.50;5318179;32;34385;-74
2022/10/27 09:22:23;;;;;;;;;;;;;;;15.91;73.01;101735.69;5309341;32;35511;-75
2022/10/27 09:25:25;;;;;;;;;;;;;;;15.92;74.19;101740.91;5303612;32;34237;-74
2022/10/27 09:28:37;;;;;;;;;;;;;;;15.84;74.27;101742.13;5295280;32;33581;-70
2022/10/27 09:31:40;;;;;;;;;;;;;;;16.73;69.96;101740.19;5313257;32;44554;-76
2022/10/27 09:34:44;;;;;;;;;;;;;;;16.60;70.87;101746.94;5291624;32;35366;-74
2022/10/27 09:37:46;;;;;;;;;;;;;;;16.49;71.40;101739.44;5292347;32;34353;-77
2022/10/27 09:40:48;;;;;;;;;;;;;;;16.87;70.27;101738.72;5321171;32;34565;-73
2022/10/27 09:43:51;;;;;;;;;;;;;;;16.72;69.81;101742.94;5294945;32;35919;-83
2022/10/27 09:46:59;;;;;;;;;;;;;;;16.56;71.78;101744.50;5304364;32;35814;-73
2022/10/27 09:50:01;;;;;;;;;;;;;;;16.36;71.03;101742.66;5291136;32;34277;-82
2022/10/27 09:53:04;;;;;;;;;;;;;;;16.49;70.84;101738.59;5314652;32;35337;-75
2022/10/27 09:56:07;;;;;;;;;;;;;;;16.43;70.29;101739.72;5310752;32;36164;-80
2022/10/27 09:59:16;;;;;;;;;;;;;;;16.69;70.19;101745.69;5305529;32;43464;-74
2022/10/27 10:02:25;;;;;;;;;;;;;;;16.84;69.51;101744.19;5318616;32;34398;-76
2022/10/27 10:05:28;;;;;;;;;;;;;;;17.50;66.35;101739.41;5289820;32;34216;-72
2022/10/27 10:08:32;;;;;;;;;;;;;;;17.65;64.90;101738.72;5317415;32;33398;-72
2022/10/27 10:11:34;;;;;;;;;;;;;;;16.69;70.67;101751.00;5316129;32;35186;-80
2022/10/27 10:14:36;;;;;;;;;;;;;;;17.61;66.17;101742.44;5308610;32;35527;-75
2022/10/27 10:17:39;;;;;;;;;;;;;;;16.75;67.08;101737.50;5324201;32;34423;-78
2022/10/27 10:20:41;;;;;;;;;;;;;;;16.53;69.99;101750.78;5304369;32;45099;-74
2022/10/27 10:23:49;;;;;;;;;;;;;;;17.21;67.63;101748.75;5309067;32;36247;-80
2022/10/27 10:26:52;;;;;;;;;;;;;;;17.08;67.37;101740.47;5282536;32;35132;-85
2022/10/27 10:29:55;;;;;;;;;;;;;;;17.30;66.71;101735.88;5319836;32;34323;-75
2022/10/27 10:32:57;;;;;;;;;;;;;;;16.57;70.33;101747.09;5306848;32;34794;-82
2022/10/27 10:35:59;;;;;;;;;;;;;;;16.63;70.56;101741.50;5304859;32;34140;-80
2022/10/27 10:39:02;;;;;;;;;;;;;;;17.20;67.01;101747.88;5293122;32;34169;-78
2022/10/27 10:42:09;;;;;;;;;;;;;;;16.34;70.93;101749.81;5305322;32;34277;-78
2022/10/27 10:45:20;;;;;;;;;;;;;;;15.90;72.75;101745.37;5319894;32;46340;-78
2022/10/27 10:48:34;;;;;;;;;;;;;;;17.25;67.89;101729.91;5284969;32;34462;-76
2022/10/27 10:51:36;;;;;;;;;;;;;;;17.51;65.98;101744.66;5310518;32;34166;-74
2022/10/27 10:54:41;;;;;;;;;;;;;;;17.55;65.85;101734.75;5317847;32;44403;-74
2022/10/27 10:57:44;;;;;;;;;;;;;;;16.40;70.47;101744.25;5313109;32;34892;-74
2022/10/27 11:01:00;;;;;;;;;;;;;;;16.95;67.79;101736.62;5320627;32;34794;-77
2022/10/27 11:04:02;;;;;;;;;;;;;;;17.30;66.52;101735.03;5313005;32;34193;-76
2022/10/27 11:07:22;;;;;;;;;;;;;;;15.43;74.74;101742.78;5306077;32;34458;-72
2022/10/27 11:10:25;;;;;;;;;;;;;;;15.84;72.89;101739.47;5311389;32;34787;-77
2022/10/27 11:13:36;;;;;;;;;;;;;;;16.42;70.45;101737.09;5316610;32;36403;-73
2022/10/27 11:16:44;;;;;;;;;;;;;;;16.65;70.73;101738.78;5324330;32;45334;-71
2022/10/27 11:19:46;;;;;;;;;;;;;;;16.68;69.41;101741.28;5308341;32;35508;-69
2022/10/27 11:22:48;;;;;;;;;;;;;;;16.46;71.17;101739.56;5323682;32;34206;-77
2022/10/27 11:25:52;;;;;;;;;;;;;;;16.60;70.09;101738.97;5277697;32;33769;-75
2022/10/27 11:28:53;;;;;;;;;;;;;;;17.65;65.97;101728.09;5305231;32;34418;-74
2022/10/27 11:32:01;;;;;;;;;;;;;;;18.22;63.49;101730.66;5325789;32;35173;-70
2022/10/27 11:35:03;;;;;;;;;;;;;;;18.35;62.76;101729.09;5308115;32;34163;-71
2022/10/27 11:38:08;;;;;;;;;;;;;;;17.39;67.12;101725.75;5320778;32;34378;-71
2022/10/27 11:41:22;;;;;;;;;;;;;;;16.70;69.38;101732.38;5304608;32;34434;-71
2022/10/27 11:44:48;;;;;;;;;;;;;;;16.98;67.91;101731.16;5299299;32;34236;-71
2022/10/27 11:47:57;;;;;;;;;;;;;;;16.91;68.78;101727.06;5316255;32;35901;-72
2022/10/27 11:51:01;;;;;;;;;;;;;;;17.19;67.77;101729.34;5306581;32;34246;-70
2022/10/27 11:54:03;;;;;;;;;;;;;;;17.53;67.16;101726.00;5320153;32;35382;-75
2022/10/27 11:57:05;;;;;;;;;;;;;;;16.77;68.96;101722.38;5305849;32;34560;-70
2022/10/27 12:00:19;;;;;;;;;;;;;;;16.77;69.02;101722.38;5315501;32;45051;-76
2022/10/27 12:03:38;;;;;;;;;;;;;;;17.71;65.94;101719.84;5318489;32;35598;-71
2022/10/27 12:06:51;;;;;;;;;;;;;;;17.47;66.43;101716.53;5307294;32;44293;-70
2022/10/27 12:10:11;;;;;;;;;;;;;;;17.05;69.17;101717.53;5324852;32;35667;-81
2022/10/27 12:13:33;;;;;;;;;;;;;;;17.01;68.33;101712.44;5309659;32;46459;-75
2022/10/27 12:16:41;;;;;;;;;;;;;;;17.48;66.71;101709.41;5309620;32;35284;-77
2022/10/27 12:19:43;;;;;;;;;;;;;;;17.71;65.48;101697.66;5319643;32;44733;-86
2022/10/27 12:22:48;;;;;;;;;;;;;;;18.25;64.03;101691.47;5298067;32;34384;-74
2022/10/27 12:25:56;;;;;;;;;;;;;;;17.29;66.72;101702.28;5306654;32;34595;-81
2022/10/27 12:28:58;;;;;;;;;;;;;;;17.54;65.89;101690.50;5299066;32;34345;-76
2022/10/27 12:32:02;;;;;;;;;;;;;;;17.27;67.00;101688.22;5319368;32;35428;-75
2022/10/27 12:35:22;;;;;;;;;;;;;;;18.92;60.87;101679.12;5304113;32;33093;-83
2022/10/27 12:38:23;;;;;;;;;;;;;;;17.65;65.72;101690.87;5313529;32;34361;-72
2022/10/27 12:41:42;;;;;;;;;;;;;;;18.33;63.30;101683.94;5317741;32;34082;-72
2022/10/27 12:45:00;;;;;;;;;;;;;;;18.03;63.23;101672.19;5300875;32;44234;-82
2022/10/27 12:48:05;;;;;;;;;;;;;;;17.45;64.75;101686.50;5313679;32;35865;-71
2022/10/27 12:51:07;;;;;;;;;;;;;;;17.64;66.33;101689.12;5318552;32;36282;-71
2022/10/27 12:54:15;;;;;;;;;;;;;;;18.45;63.02;101677.13;5297752;32;43789;-78
2022/10/27 12:57:17;;;;;;;;;;;;;;;17.68;64.98;101681.88;5315013;32;34922;-76
2022/10/27 13:00:19;;;;;;;;;;;;;;;16.92;68.56;101689.81;5306047;32;36193;-73
2022/10/27 13:03:27;;;;;;;;;;;;;;;16.69;70.39;101685.50;5293192;32;35790;-85
2022/10/27 13:06:32;;;;;;;;;;;;;;;17.22;67.39;101698.19;5306190;32;34612;-74
2022/10/27 13:09:37;;;;;;;;;;;;;;;17.64;66.36;101694.44;5307050;32;34193;-74
2022/10/27 13:12:51;;;;;;;;;;;;;;;18.14;64.09;101688.47;5306045;32;42734;-75
2022/10/27 13:16:13;;;;;;;;;;;;;;;17.03;68.21;101687.53;5307747;32;34680;-71
2022/10/27 13:19:32;;;;;;;;;;;;;;;16.84;69.31;101696.41;5320308;32;44562;-75
2022/10/27 13:22:36;;;;;;;;;;;;;;;16.98;68.77;101689.53;5297126;32;35527;-78
2022/10/27 13:25:40;;;;;;;;;;;;;;;18.10;64.05;101676.28;5291139;32;34281;-77
2022/10/27 13:28:49;;;;;;;;;;;;;;;17.57;66.27;101680.56;5309790;32;43810;-73
2022/10/27 13:32:10;;;;;;;;;;;;;;;17.71;65.52;101685.28;5307746;32;34905;-72
2022/10/27 13:35:12;;;;;;;;;;;;;;;17.80;65.35;101668.88;5322166;32;44481;-76
2022/10/27 13:38:21;;;;;;;;;;;;;;;17.94;65.56;101676.16;5310671;32;35176;-68
2022/10/27 13:41:41;;;;;;;;;;;;;;;17.28;67.29;101684.63;5308856;32;34416;-73
2022/10/27 13:44:44;;;;;;;;;;;;;;;18.46;63.70;101678.00;5315326;32;44523;-69
2022/10/27 13:47:55;;;;;;;;;;;;;;;17.82;65.59;101688.25;5295338;32;34386;-72
2022/10/27 13:50:59;;;;;;;;;;;;;;;17.76;65.46;101701.84;5319499;32;35468;-71
2022/10/27 13:54:01;;;;;;;;;;;;;;;16.86;69.77;101697.19;5294919;32;35380;-71
2022/10/27 13:57:13;;;;;;;;;;;;;;;17.34;68.41;101694.09;5294796;32;34052;-69
2022/10/27 14:00:21;;;;;;;;;;;;;;;17.14;67.82;101694.16;5282083;32;1013269;-69
2022/10/27 14:03:42;;;;;;;;;;;;;;;18.07;65.19;101687.06;5287347;32;34286;-67
2022/10/27 14:06:44;;;;;;;;;;;;;;;17.61;66.46;101694.59;5316672;32;45193;-66
2022/10/27 14:09:49;;;;;;;;;;;;;;;16.92;68.67;101696.91;5302451;32;34894;-73
2022/10/27 14:12:51;;;;;;;;;;;;;;;16.86;70.24;101707.81;5308602;32;35202;-72
2022/10/27 14:15:57;;;;;;;;;;;;;;;16.79;70.03;101699.25;5297118;32;35767;-72
2022/10/27 14:19:03;;;;;;;;;;;;;;;16.87;69.87;101698.91;5292138;32;34786;-71
2022/10/27 14:22:05;;;;;;;;;;;;;;;17.52;66.57;101690.59;5313832;32;36286;-71
2022/10/27 14:25:15;;;;;;;;;;;;;;;18.14;64.66;101693.78;5278916;32;34978;-70
2022/10/27 14:28:20;;;;;;;;;;;;;;;17.61;66.91;101699.91;5310349;32;44401;-71
2022/10/27 14:31:22;;;;;;;;;;;;;;;17.42;67.07;101693.75;5306331;32;34839;-66
2022/10/27 14:34:25;;;;;;;;;;;;;;;17.66;66.60;101707.69;5302070;32;34233;-71
2022/10/27 14:37:30;;;;;;;;;;;;;;;17.38;67.04;101710.75;5317672;32;34289;-66
2022/10/27 14:40:38;;;;;;;;;;;;;;;16.71;69.07;101702.25;5301058;32;34780;-67
2022/10/27 14:43:42;;;;;;;;;;;;;;;16.59;71.15;101696.56;5320593;32;44655;-67
2022/10/27 14:46:44;;;;;;;;;;;;;;;17.26;68.45;101699.78;5305338;32;35313;-66
2022/10/27 14:49:46;;;;;;;;;;;;;;;16.54;71.04;101707.38;5302916;33;34739;-66
2022/10/27 14:52:49;;;;;;;;;;;;;;;16.43;71.50;101701.69;5308741;32;34550;-70
2022/10/27 14:56:10;;;;;;;;;;;;;;;17.35;68.18;101702.94;5307868;32;35788;-71
2022/10/27 14:59:17;;;;;;;;;;;;;;;16.66;71.16;101706.00;5321187;32;44975;-66
2022/10/27 15:02:19;;;;;;;;;;;;;;;16.71;70.51;101702.25;5305612;32;35525;-71
2022/10/27 15:05:34;;;;;;;;;;;;;;;16.15;73.33;101702.84;5322840;32;35552;-65
2022/10/27 15:08:37;;;;;;;;;;;;;;;17.04;69.31;101709.66;5308059;32;35122;-71
2022/10/27 15:11:39;;;;;;;;;;;;;;;16.87;69.03;101718.34;5301009;32;44618;-69
2022/10/27 15:14:43;;;;;;;;;;;;;;;17.10;69.48;101705.84;5305858;32;36739;-72
2022/10/27 15:17:45;;;;;;;;;;;;;;;16.67;69.58;101708.56;5290419;32;35415;-71
2022/10/27 15:20:47;;;;;;;;;;;;;;;16.02;73.79;101711.37;5303193;32;34767;-71
2022/10/27 15:23:50;;;;;;;;;;;;;;;17.00;69.60;101708.03;5290347;33;35474;-71
2022/10/27 15:26:52;;;;;;;;;;;;;;;16.57;70.98;101695.78;5293605;32;34962;-72
2022/10/27 15:29:54;;;;;;;;;;;;;;;16.85;70.16;101695.47;5296642;32;35214;-72
2022/10/27 15:32:56;;;;;;;;;;;;;;;16.50;71.43;101701.37;5303498;32;34631;-67
2022/10/27 15:36:13;;;;;;;;;;;;;;;15.78;74.57;101710.56;5324074;32;34317;-71
2022/10/27 15:39:16;;;;;;;;;;;;;;;16.35;72.71;101706.44;5303385;32;44428;-67
2022/10/27 15:42:19;;;;;;;;;;;;;;;16.09;72.54;101703.09;5305065;32;34924;-72
2022/10/27 15:45:24;;;;;;;;;;;;;;;16.17;72.72;101708.97;5315845;32;35065;-71